createdAt,value
2024-03-08T00:01:29.483Z,97722.53
2024-03-08T00:03:04.376Z,97712.81
2024-03-08T00:04:37.666Z,97725.88
2024-03-08T00:06:12.892Z,97717.16
2024-03-08T00:07:46.232Z,97723.06
2024-03-08T00:09:23.335Z,97713.34
2024-03-08T00:10:56.386Z,97709.28
2024-03-08T00:12:30.866Z,97699.88
2024-03-08T00:14:07.728Z,97711.47
2024-03-08T00:15:42.504Z,97709.84
2024-03-08T00:17:16.976Z,97701.38
2024-03-08T00:18:51.587Z,97700.72
2024-03-08T00:20:24.673Z,97704.97
2024-03-08T00:21:58.737Z,97709.00
2024-03-08T00:23:31.606Z,97704.56
2024-03-08T00:25:06.846Z,97695.09
2024-03-08T00:26:39.945Z,97708.91
2024-03-08T00:28:16.208Z,97698.56
2024-03-08T00:29:49.435Z,97695.34
2024-03-08T00:31:25.261Z,97702.03
2024-03-08T00:32:59.229Z,97695.91
2024-03-08T00:34:32.846Z,97674.63
2024-03-08T00:36:08.557Z,97695.16
2024-03-08T00:37:43.385Z,97698.66
2024-03-08T00:39:17.818Z,97695.78
2024-03-08T00:40:50.717Z,97696.56
2024-03-08T00:42:25.620Z,97691.44
2024-03-08T00:44:00.268Z,97696.53
2024-03-08T00:45:33.508Z,97684.72
2024-03-08T00:47:09.381Z,97694.50
2024-03-08T00:48:44.610Z,97678.97
2024-03-08T00:50:19.584Z,97672.91
2024-03-08T00:51:52.629Z,97683.25
2024-03-08T00:53:26.752Z,97673.13
2024-03-08T00:55:00.798Z,97665.09
2024-03-08T00:56:35.646Z,97649.91
2024-03-08T00:58:10.412Z,97669.16
2024-03-08T00:59:43.516Z,97671.50
2024-03-08T01:01:17.957Z,97663.84
2024-03-08T01:02:53.325Z,97660.75
2024-03-08T01:04:30.076Z,97669.72
2024-03-08T01:06:04.491Z,97657.72
2024-03-08T01:07:38.708Z,97662.00
2024-03-08T01:09:12.024Z,97652.63
2024-03-08T01:10:46.568Z,97650.44
2024-03-08T01:12:19.791Z,97649.09
2024-03-08T01:13:56.069Z,97640.34
2024-03-08T01:15:30.547Z,97644.81
2024-03-08T01:17:03.459Z,97635.03
2024-03-08T01:18:38.848Z,97645.41
2024-03-08T01:20:13.654Z,97627.09
2024-03-08T01:21:48.143Z,97635.75
2024-03-08T01:23:21.096Z,97637.16
2024-03-08T01:24:55.285Z,97632.50
2024-03-08T01:26:28.253Z,97617.09
2024-03-08T01:28:02.626Z,97632.28
2024-03-08T01:29:35.562Z,97629.47
2024-03-08T01:31:09.755Z,97628.88
2024-03-08T01:32:43.732Z,97625.25
2024-03-08T01:34:19.612Z,97623.13
2024-03-08T01:35:53.753Z,97624.69
2024-03-08T01:37:26.652Z,97616.28
2024-03-08T01:39:00.518Z,97609.84
2024-03-08T01:40:34.867Z,97603.53
2024-03-08T01:42:08.133Z,97604.34
2024-03-08T01:43:42.070Z,97601.69
2024-03-08T01:45:15.013Z,97604.53
2024-03-08T01:46:50.245Z,97599.19
2024-03-08T01:48:25.088Z,97606.91
2024-03-08T01:50:01.012Z,97602.81
2024-03-08T01:51:34.190Z,97593.06
2024-03-08T01:53:08.935Z,97582.09
2024-03-08T01:54:43.151Z,97591.47
2024-03-08T01:56:16.224Z,97595.63
2024-03-08T01:57:50.547Z,97590.84
2024-03-08T01:59:23.897Z,97588.19
2024-03-08T02:00:59.321Z,97582.44
2024-03-08T02:02:34.889Z,97583.19
2024-03-08T02:04:09.293Z,97583.28
2024-03-08T02:05:45.114Z,97582.03
2024-03-08T02:07:19.039Z,97578.97
2024-03-08T02:08:52.591Z,97578.91
2024-03-08T02:10:26.492Z,97575.22
2024-03-08T02:11:59.835Z,97572.34
2024-03-08T02:13:34.017Z,97570.97
2024-03-08T02:15:08.019Z,97568.81
2024-03-08T02:16:41.996Z,97578.59
2024-03-08T02:18:15.859Z,97564.78
2024-03-08T02:19:49.830Z,97566.81
2024-03-08T02:21:24.107Z,97563.41
2024-03-08T02:22:57.951Z,97569.19
2024-03-08T02:24:31.982Z,97566.97
2024-03-08T02:26:06.715Z,97558.19
2024-03-08T02:27:42.323Z,97556.56
2024-03-08T02:29:17.134Z,97562.16
2024-03-08T02:30:50.985Z,97557.66
2024-03-08T02:32:25.330Z,97547.03
2024-03-08T02:34:00.744Z,97551.69
2024-03-08T02:35:34.040Z,97545.56
2024-03-08T02:37:10.135Z,97546.75
2024-03-08T02:38:43.034Z,97535.03
2024-03-08T02:40:17.733Z,97549.13
2024-03-08T02:41:50.718Z,97539.91
2024-03-08T02:43:26.249Z,97541.09
2024-03-08T02:44:59.626Z,97539.06
2024-03-08T02:46:33.638Z,97538.16
2024-03-08T02:48:07.785Z,97535.28
2024-03-08T02:49:42.202Z,97532.09
2024-03-08T02:51:17.387Z,97543.97
2024-03-08T02:52:51.844Z,97523.25
2024-03-08T02:54:25.985Z,97521.00
2024-03-08T02:55:59.612Z,97527.69
2024-03-08T02:57:33.600Z,97524.88
2024-03-08T02:59:06.696Z,97530.66
2024-03-08T03:00:42.101Z,97532.31
2024-03-08T03:02:15.583Z,97517.66
2024-03-08T03:03:49.501Z,97530.19
2024-03-08T03:05:22.558Z,97517.75
2024-03-08T03:06:57.097Z,97524.16
2024-03-08T03:08:32.128Z,97521.28
2024-03-08T03:10:08.213Z,97519.47
2024-03-08T03:11:42.098Z,97524.22
2024-03-08T03:13:15.463Z,97511.06
2024-03-08T03:14:50.118Z,97513.50
2024-03-08T03:16:24.027Z,97506.41
2024-03-08T03:17:57.982Z,97507.28
2024-03-08T03:19:31.320Z,97519.16
2024-03-08T03:21:09.226Z,97505.44
2024-03-08T03:22:42.613Z,97512.09
2024-03-08T03:24:19.124Z,97515.16
2024-03-08T03:25:53.349Z,97502.66
2024-03-08T03:27:27.600Z,97482.47
2024-03-08T03:29:01.836Z,97507.66
2024-03-08T03:30:35.907Z,97509.31
2024-03-08T03:32:08.954Z,97506.91
2024-03-08T03:33:43.401Z,97507.06
2024-03-08T03:35:17.028Z,97504.63
2024-03-08T03:36:50.955Z,97515.03
2024-03-08T03:38:24.950Z,97508.28
2024-03-08T03:40:00.940Z,97505.81
2024-03-08T03:41:33.929Z,97518.72
2024-03-08T03:43:08.301Z,97507.75
2024-03-08T03:44:41.339Z,97500.81
2024-03-08T03:46:15.687Z,97507.91
2024-03-08T03:47:48.665Z,97509.22
2024-03-08T03:49:22.778Z,97505.00
2024-03-08T03:50:56.920Z,97507.75
2024-03-08T03:52:30.138Z,97504.34
2024-03-08T03:54:05.031Z,97513.56
2024-03-08T03:55:41.664Z,97509.78
2024-03-08T03:57:15.077Z,97508.53
2024-03-08T03:58:50.475Z,97505.31
2024-03-08T04:00:23.536Z,97505.16
2024-03-08T04:01:57.674Z,97498.63
2024-03-08T04:03:30.600Z,97508.19
2024-03-08T04:05:05.449Z,97513.63
2024-03-08T04:06:39.389Z,97507.16
2024-03-08T04:08:12.736Z,97499.56
2024-03-08T04:09:46.628Z,97501.34
2024-03-08T04:11:22.516Z,97504.28
2024-03-08T04:12:57.955Z,97505.53
2024-03-08T04:14:30.957Z,97503.75
2024-03-08T04:16:09.020Z,97493.88
2024-03-08T04:17:42.508Z,97496.50
2024-03-08T04:19:16.579Z,97498.41
2024-03-08T04:20:49.667Z,97493.03
2024-03-08T04:22:23.710Z,97482.56
2024-03-08T04:23:58.119Z,97506.13
2024-03-08T04:25:32.052Z,97506.94
2024-03-08T04:27:06.606Z,97499.50
2024-03-08T04:28:40.897Z,97495.16
2024-03-08T04:30:14.706Z,97491.72
2024-03-08T04:31:48.690Z,97494.34
2024-03-08T04:33:22.821Z,97483.75
2024-03-08T04:34:56.947Z,97493.09
2024-03-08T04:36:30.232Z,97493.97
2024-03-08T04:38:06.478Z,97483.31
2024-03-08T04:39:39.744Z,97496.72
2024-03-08T04:41:13.890Z,97484.41
2024-03-08T04:42:50.240Z,97483.38
2024-03-08T04:44:25.512Z,97490.06
2024-03-08T04:45:59.476Z,97494.44
2024-03-08T04:47:33.552Z,97491.19
2024-03-08T04:49:08.632Z,97490.44
2024-03-08T04:50:42.498Z,97496.53
2024-03-08T04:52:15.793Z,97490.78
2024-03-08T04:53:49.832Z,97491.22
2024-03-08T04:55:23.393Z,97493.25
2024-03-08T04:56:57.393Z,97484.16
2024-03-08T04:58:31.698Z,97488.06
2024-03-08T05:00:12.092Z,97485.81
2024-03-08T05:01:45.497Z,97476.91
2024-03-08T05:03:19.463Z,97483.84
2024-03-08T05:04:52.576Z,97480.38
2024-03-08T05:06:26.417Z,97485.47
2024-03-08T05:07:59.807Z,97486.84
2024-03-08T05:09:34.974Z,97476.44
2024-03-08T05:11:08.595Z,97488.72
2024-03-08T05:12:42.594Z,97483.84
2024-03-08T05:14:18.466Z,97480.59
2024-03-08T05:15:52.496Z,97480.84
2024-03-08T05:17:25.339Z,97485.56
2024-03-08T05:19:00.527Z,97481.28
2024-03-08T05:20:34.035Z,97476.34
2024-03-08T05:22:08.000Z,97477.81
2024-03-08T05:23:41.068Z,97483.13
2024-03-08T05:25:15.334Z,97479.06
2024-03-08T05:26:49.313Z,97478.91
2024-03-08T05:28:23.354Z,97478.75
2024-03-08T05:29:57.930Z,97471.53
2024-03-08T05:31:38.484Z,97480.19
2024-03-08T05:33:11.938Z,97475.19
2024-03-08T05:34:45.845Z,97466.75
2024-03-08T05:36:18.859Z,97469.53
2024-03-08T05:37:52.886Z,97461.38
2024-03-08T05:39:26.487Z,97461.81
2024-03-08T05:41:00.585Z,97469.59
2024-03-08T05:42:33.898Z,97460.94
2024-03-08T05:44:08.169Z,97468.38
2024-03-08T05:45:42.837Z,97444.38
2024-03-08T05:47:17.117Z,97458.94
2024-03-08T05:48:50.389Z,97457.72
2024-03-08T05:50:24.552Z,97468.53
2024-03-08T05:51:57.989Z,97468.13
2024-03-08T05:53:32.782Z,97470.38
2024-03-08T05:55:08.535Z,97477.44
2024-03-08T05:56:44.701Z,97478.56
2024-03-08T05:58:18.568Z,97477.16
2024-03-08T05:59:52.957Z,97480.69
2024-03-08T06:01:28.568Z,97468.19
2024-03-08T06:03:01.649Z,97482.16
2024-03-08T06:04:36.024Z,97483.22
2024-03-08T06:06:09.195Z,97485.38
2024-03-08T06:07:43.519Z,97482.16
2024-03-08T06:09:24.151Z,97475.41
2024-03-08T06:11:00.838Z,97485.59
2024-03-08T06:12:38.203Z,97483.69
2024-03-08T06:14:12.325Z,97477.22
2024-03-08T06:15:46.594Z,97491.81
2024-03-08T06:17:21.385Z,97480.63
2024-03-08T06:18:56.492Z,97487.97
2024-03-08T06:20:29.726Z,97482.34
2024-03-08T06:22:06.751Z,97491.72
2024-03-08T06:23:41.586Z,97498.47
2024-03-08T06:25:16.038Z,97487.59
2024-03-08T06:26:50.067Z,97494.47
2024-03-08T06:28:24.113Z,97493.75
2024-03-08T06:29:57.535Z,97494.63
2024-03-08T06:31:31.611Z,97501.31
2024-03-08T06:33:08.318Z,97488.22
2024-03-08T06:34:41.306Z,97495.78
2024-03-08T06:36:16.363Z,97498.13
2024-03-08T06:37:49.655Z,97496.44
2024-03-08T06:39:26.292Z,97478.41
2024-03-08T06:40:59.718Z,97490.69
2024-03-08T06:42:36.588Z,97488.91
2024-03-08T06:44:10.306Z,97488.91
2024-03-08T06:45:49.908Z,97488.78
2024-03-08T06:47:24.022Z,97478.97
2024-03-08T06:49:00.161Z,97477.06
2024-03-08T06:50:33.314Z,97472.66
2024-03-08T06:52:10.234Z,97485.16
2024-03-08T06:53:43.524Z,97489.50
2024-03-08T06:55:18.822Z,97479.84
2024-03-08T06:56:52.070Z,97482.53
2024-03-08T06:58:26.221Z,97496.53
2024-03-08T06:59:59.302Z,97496.78
2024-03-08T07:01:36.347Z,97508.63
2024-03-08T07:03:13.662Z,97502.41
2024-03-08T07:04:48.276Z,97519.97
2024-03-08T07:06:22.431Z,97518.13
2024-03-08T07:07:56.369Z,97525.31
2024-03-08T07:09:30.429Z,97526.81
2024-03-08T07:11:05.198Z,97531.53
2024-03-08T07:12:38.326Z,97534.06
2024-03-08T07:14:12.743Z,97525.13
2024-03-08T07:15:46.695Z,97533.78
2024-03-08T07:17:20.702Z,97538.19
2024-03-08T07:18:53.965Z,97541.53
2024-03-08T07:20:30.457Z,97546.94
2024-03-08T07:22:04.848Z,97550.22
2024-03-08T07:23:55.820Z,97536.34
2024-03-08T07:25:31.251Z,97545.63
2024-03-08T07:27:06.550Z,97533.84
2024-03-08T07:28:40.917Z,97553.22
2024-03-08T07:30:14.438Z,97554.16
2024-03-08T07:31:57.875Z,97559.78
2024-03-08T07:33:32.115Z,97537.03
2024-03-08T07:35:07.064Z,97555.13
2024-03-08T07:36:41.704Z,97545.53
2024-03-08T07:38:16.173Z,97548.03
2024-03-08T07:39:49.537Z,97552.75
2024-03-08T07:41:24.412Z,97549.66
2024-03-08T07:42:57.880Z,97542.50
2024-03-08T07:44:33.568Z,97570.16
2024-03-08T07:46:07.030Z,97561.34
2024-03-08T07:47:41.323Z,97547.66
2024-03-08T07:49:15.212Z,97542.00
2024-03-08T07:50:51.504Z,97538.38
2024-03-08T07:52:27.167Z,97565.66
2024-03-08T07:54:01.391Z,97571.41
2024-03-08T07:55:34.680Z,97557.59
2024-03-08T07:57:10.235Z,97571.13
2024-03-08T07:58:44.059Z,97553.84
2024-03-08T08:00:19.858Z,97536.97
2024-03-08T08:01:55.436Z,97547.59
2024-03-08T08:03:29.904Z,97527.97
2024-03-08T08:05:03.086Z,97537.81
2024-03-08T08:06:39.272Z,97524.72
2024-03-08T08:08:13.673Z,97535.50
2024-03-08T08:09:48.197Z,97550.78
2024-03-08T08:11:21.511Z,97524.38
2024-03-08T08:12:55.480Z,97541.50
2024-03-08T08:14:28.428Z,97537.47
2024-03-08T08:16:02.657Z,97515.25
2024-03-08T08:17:36.017Z,97521.25
2024-03-08T08:19:15.072Z,97522.81
2024-03-08T08:20:48.503Z,97531.88
2024-03-08T08:22:23.183Z,97554.31
2024-03-08T08:23:57.699Z,97547.22
2024-03-08T08:25:32.481Z,97556.06
2024-03-08T08:27:05.673Z,97563.94
2024-03-08T08:28:42.589Z,97567.81
2024-03-08T08:30:16.132Z,97574.16
2024-03-08T08:31:51.100Z,97527.59
2024-03-08T08:33:26.822Z,97533.88
2024-03-08T08:35:01.396Z,97558.97
2024-03-08T08:36:35.632Z,97535.13
2024-03-08T08:38:08.704Z,97526.88
2024-03-08T08:39:44.224Z,97523.41
2024-03-08T08:41:19.412Z,97522.88
2024-03-08T08:42:53.940Z,97514.97
2024-03-08T08:44:27.301Z,97534.47
2024-03-08T08:46:02.335Z,97534.81
2024-03-08T08:47:36.308Z,97551.88
2024-03-08T08:49:11.812Z,97515.13
2024-03-08T08:50:46.192Z,97525.56
2024-03-08T08:52:20.891Z,97477.34
2024-03-08T08:53:54.775Z,97503.09
2024-03-08T08:55:32.748Z,97487.47
2024-03-08T08:57:08.913Z,97510.63
2024-03-08T08:58:43.630Z,97501.38
2024-03-08T09:00:17.967Z,97492.66
2024-03-08T09:01:54.978Z,97464.03
2024-03-08T09:03:30.872Z,97479.53
2024-03-08T09:05:04.509Z,97497.06
2024-03-08T09:06:39.320Z,97477.53
2024-03-08T09:08:12.401Z,97485.94
2024-03-08T09:09:46.695Z,97502.25
2024-03-08T09:11:21.451Z,97530.16
2024-03-08T09:12:56.405Z,97511.56
2024-03-08T09:14:29.363Z,97522.34
2024-03-08T09:16:06.242Z,97530.63
2024-03-08T09:17:40.975Z,97541.00
2024-03-08T09:19:15.740Z,97505.16
2024-03-08T09:20:49.979Z,97510.03
2024-03-08T09:22:23.618Z,97520.84
2024-03-08T09:23:57.601Z,97487.91
2024-03-08T09:25:32.512Z,97457.72
2024-03-08T09:27:10.850Z,97494.03
2024-03-08T09:28:44.684Z,97505.66
2024-03-08T09:30:17.725Z,97514.91
2024-03-08T09:31:52.889Z,97508.38
2024-03-08T09:33:26.039Z,97496.50
2024-03-08T09:35:01.986Z,97448.53
2024-03-08T09:36:35.084Z,97450.34
2024-03-08T09:38:14.597Z,97464.94
2024-03-08T09:39:47.828Z,97468.53
2024-03-08T09:41:21.885Z,97462.78
2024-03-08T09:42:56.779Z,97474.44
2024-03-08T09:44:31.416Z,97474.72
2024-03-08T09:46:05.605Z,97483.63
2024-03-08T09:47:42.808Z,97492.16
2024-03-08T09:49:15.814Z,97462.66
2024-03-08T09:50:51.108Z,97465.72
2024-03-08T09:52:24.218Z,97458.88
2024-03-08T09:54:02.835Z,97486.66
2024-03-08T09:55:38.598Z,97456.06
2024-03-08T09:57:13.565Z,97439.53
2024-03-08T09:59:09.183Z,97421.34
2024-03-08T10:00:43.562Z,97433.44
2024-03-08T10:02:17.983Z,97425.91
2024-03-08T10:03:56.160Z,97434.78
2024-03-08T10:05:29.511Z,97421.53
2024-03-08T10:07:04.179Z,97415.88
2024-03-08T10:08:39.245Z,97426.06
2024-03-08T10:10:13.448Z,97408.53
2024-03-08T10:11:47.976Z,97419.00
2024-03-08T10:13:21.231Z,97432.97
2024-03-08T10:15:01.446Z,97423.72
2024-03-08T10:16:35.272Z,97408.41
2024-03-08T10:18:09.970Z,97420.44
2024-03-08T10:19:52.021Z,97403.47
2024-03-08T10:21:26.435Z,97403.69
2024-03-08T10:23:07.496Z,97412.06
2024-03-08T10:24:48.045Z,97415.88
2024-03-08T10:26:22.917Z,97421.94
2024-03-08T10:27:58.188Z,97414.94
2024-03-08T10:29:32.376Z,97414.34
2024-03-08T10:31:08.151Z,97405.44
2024-03-08T10:32:42.436Z,97416.03
2024-03-08T10:34:17.677Z,97421.28
2024-03-08T10:35:51.343Z,97420.22
2024-03-08T10:37:26.084Z,97413.56
2024-03-08T10:39:02.652Z,97417.91
2024-03-08T10:40:41.310Z,97408.72
2024-03-08T10:42:19.538Z,97424.94
2024-03-08T10:44:14.091Z,97412.78
2024-03-08T10:45:50.228Z,97407.09
2024-03-08T10:47:31.849Z,97423.31
2024-03-08T10:49:09.300Z,97418.66
2024-03-08T10:50:46.449Z,97424.13
2024-03-08T10:52:20.725Z,97422.88
2024-03-08T10:53:56.622Z,97426.38
2024-03-08T10:55:29.881Z,97403.47
2024-03-08T10:57:06.634Z,97401.31
2024-03-08T10:58:41.364Z,97403.78
2024-03-08T11:00:17.604Z,97393.28
2024-03-08T11:01:52.200Z,97398.31
2024-03-08T11:03:54.989Z,97401.44
2024-03-08T11:05:40.879Z,97404.66
2024-03-08T11:07:18.981Z,97403.34
2024-03-08T11:08:52.109Z,97394.56
2024-03-08T11:10:28.368Z,97400.09
2024-03-08T11:12:26.606Z,97391.03
2024-03-08T11:14:00.505Z,97403.69
2024-03-08T11:15:35.075Z,97390.84
2024-03-08T11:17:08.292Z,97381.88
2024-03-08T11:18:44.295Z,97387.78
2024-03-08T11:20:22.063Z,97388.06
2024-03-08T11:22:04.315Z,97376.75
2024-03-08T11:23:37.762Z,97382.13
2024-03-08T11:25:12.133Z,97380.00
2024-03-08T11:26:47.907Z,97370.00
2024-03-08T11:28:23.681Z,97372.72
2024-03-08T11:30:17.100Z,97373.63
2024-03-08T11:31:52.991Z,97352.00
2024-03-08T11:33:30.040Z,97355.03
2024-03-08T11:35:06.827Z,97348.75
2024-03-08T11:36:44.787Z,97357.03
2024-03-08T11:38:20.396Z,97344.50
2024-03-08T11:40:00.569Z,97341.91
2024-03-08T11:41:35.288Z,97342.94
2024-03-08T11:43:08.769Z,97334.06
2024-03-08T11:44:45.625Z,97340.91
2024-03-08T11:46:19.780Z,97329.94
2024-03-08T11:47:58.743Z,97345.75
2024-03-08T11:49:34.498Z,97329.47
2024-03-08T11:51:09.322Z,97330.16
2024-03-08T11:52:46.484Z,97318.72
2024-03-08T11:54:19.758Z,97326.47
2024-03-08T11:55:53.946Z,97318.88
2024-03-08T11:57:27.631Z,97321.81
2024-03-08T11:59:03.395Z,97313.28
2024-03-08T12:00:37.029Z,97318.88
2024-03-08T12:02:12.213Z,97314.88
2024-03-08T12:03:45.639Z,97315.06
2024-03-08T12:05:22.580Z,97296.44
2024-03-08T12:06:55.523Z,97291.03
2024-03-08T12:08:32.277Z,97288.53
2024-03-08T12:10:24.140Z,97297.16
2024-03-08T12:11:58.395Z,97293.75
2024-03-08T12:13:35.127Z,97275.44
2024-03-08T12:15:12.530Z,97277.25
2024-03-08T12:16:46.186Z,97280.69
2024-03-08T12:18:20.123Z,97283.31
2024-03-08T12:19:55.915Z,97289.81
2024-03-08T12:21:30.676Z,97281.16
2024-03-08T12:23:04.472Z,97267.84
2024-03-08T12:24:42.411Z,97264.34
2024-03-08T12:26:17.141Z,97258.13
2024-03-08T12:27:53.481Z,97274.19
2024-03-08T12:29:28.816Z,97281.31
2024-03-08T12:31:03.460Z,97277.00
2024-03-08T12:32:37.060Z,97268.34
2024-03-08T12:34:11.373Z,97271.94
2024-03-08T12:35:55.940Z,97262.44
2024-03-08T12:37:30.747Z,97265.47
2024-03-08T12:39:05.038Z,97271.09
2024-03-08T12:40:43.299Z,97271.50
2024-03-08T12:42:16.882Z,97273.47
2024-03-08T12:43:51.213Z,97262.13
2024-03-08T12:45:25.255Z,97246.53
2024-03-08T12:47:00.432Z,97256.66
2024-03-08T12:48:36.736Z,97255.56
2024-03-08T12:50:12.000Z,97260.25
2024-03-08T12:51:45.225Z,97258.56
2024-03-08T12:53:19.235Z,97259.44
2024-03-08T12:54:53.265Z,97257.72
2024-03-08T12:56:34.532Z,97246.53
2024-03-08T12:58:08.705Z,97272.28
2024-03-08T12:59:43.922Z,97236.41
2024-03-08T13:01:18.826Z,97234.81
2024-03-08T13:02:53.285Z,97230.81
2024-03-08T13:04:27.009Z,97245.22
2024-03-08T13:06:01.246Z,97243.63
2024-03-08T13:07:35.021Z,97239.03
2024-03-08T13:09:09.036Z,97238.44
2024-03-08T13:10:44.675Z,97215.03
2024-03-08T13:12:21.222Z,97219.13
2024-03-08T13:13:55.639Z,97214.91
2024-03-08T13:15:30.802Z,97224.25
2024-03-08T13:17:05.342Z,97216.84
2024-03-08T13:18:38.662Z,97226.84
2024-03-08T13:20:24.845Z,97226.66
2024-03-08T13:22:05.772Z,97213.03
2024-03-08T13:23:41.660Z,97222.13
2024-03-08T13:25:15.199Z,97223.63
2024-03-08T13:26:51.596Z,97205.34
2024-03-08T13:28:31.107Z,97211.44
2024-03-08T13:30:05.837Z,97209.63
2024-03-08T13:31:40.920Z,97203.03
2024-03-08T13:33:15.321Z,97208.09
2024-03-08T13:34:52.060Z,97206.03
2024-03-08T13:36:30.436Z,97203.91
2024-03-08T13:38:04.576Z,97204.31
2024-03-08T13:39:44.889Z,97208.00
2024-03-08T13:41:21.568Z,97181.66
2024-03-08T13:42:55.610Z,97195.91
2024-03-08T13:44:30.281Z,97194.25
2024-03-08T13:46:05.941Z,97193.91
2024-03-08T13:47:40.532Z,97199.06
2024-03-08T13:49:14.784Z,97189.47
2024-03-08T13:50:47.812Z,97184.38
2024-03-08T13:52:22.018Z,97195.06
2024-03-08T13:53:55.402Z,97193.66
2024-03-08T13:55:29.338Z,97185.47
2024-03-08T13:57:04.800Z,97149.72
2024-03-08T13:58:39.244Z,97182.41
2024-03-08T14:00:15.481Z,97183.22
2024-03-08T14:01:50.134Z,97179.81
2024-03-08T14:03:24.839Z,97173.94
2024-03-08T14:05:03.297Z,97167.84
2024-03-08T14:08:13.151Z,97167.63
2024-03-08T14:09:45.930Z,97182.66
2024-03-08T14:11:20.897Z,97163.19
2024-03-08T14:12:53.951Z,97178.09
2024-03-08T14:14:27.665Z,97154.50
2024-03-08T14:16:01.982Z,97166.00
2024-03-08T14:17:37.199Z,97152.66
2024-03-08T14:19:11.059Z,97161.28
2024-03-08T14:20:45.426Z,97151.97
2024-03-08T14:22:18.733Z,97151.19
2024-03-08T14:23:53.683Z,97147.50
2024-03-08T14:25:27.353Z,97156.03
2024-03-08T14:27:01.553Z,97155.53
2024-03-08T14:28:34.685Z,97144.06
2024-03-08T14:30:11.942Z,97147.44
2024-03-08T14:31:47.199Z,97136.94
2024-03-08T14:33:20.296Z,97136.44
2024-03-08T14:34:56.259Z,97146.44
2024-03-08T14:36:29.717Z,97142.44
2024-03-08T14:38:03.941Z,97137.53
2024-03-08T14:39:36.955Z,97141.72
2024-03-08T14:41:11.017Z,97147.69
2024-03-08T14:42:44.114Z,97142.53
2024-03-08T14:44:19.848Z,97133.34
2024-03-08T14:45:53.881Z,97130.13
2024-03-08T14:47:28.210Z,97132.41
2024-03-08T14:49:02.522Z,97126.44
2024-03-08T14:50:38.027Z,97136.34
2024-03-08T14:52:28.303Z,97123.84
2024-03-08T14:54:03.524Z,97129.44
2024-03-08T14:55:36.778Z,97133.44
2024-03-08T14:57:10.648Z,97111.75
2024-03-08T14:58:44.971Z,97122.22
2024-03-08T15:00:28.415Z,97115.53
2024-03-08T15:02:02.882Z,97109.19
2024-03-08T15:03:39.600Z,97117.59
2024-03-08T15:05:12.829Z,97106.09
2024-03-08T15:06:50.759Z,97106.00
2024-03-08T15:08:26.707Z,97096.44
2024-03-08T15:10:00.777Z,97095.09
2024-03-08T15:11:35.766Z,97095.50
2024-03-08T15:13:16.500Z,97099.66
2024-03-08T15:14:52.348Z,97087.75
2024-03-08T15:16:26.318Z,97090.78
2024-03-08T15:18:00.419Z,97092.78
2024-03-08T15:19:36.153Z,97090.66
2024-03-08T15:21:10.235Z,97066.50
2024-03-08T15:22:44.577Z,97086.78
2024-03-08T15:24:22.200Z,97092.84
2024-03-08T15:25:56.056Z,97077.34
2024-03-08T15:27:30.372Z,97079.19
2024-03-08T15:29:03.404Z,97072.41
2024-03-08T15:30:37.413Z,97068.69
2024-03-08T15:32:15.895Z,97068.38
2024-03-08T15:33:52.969Z,97062.97
2024-03-08T15:35:27.596Z,97063.66
2024-03-08T15:37:04.317Z,97075.59
2024-03-08T15:38:38.267Z,97070.69
2024-03-08T15:40:21.975Z,97054.03
2024-03-08T15:41:56.375Z,97056.34
2024-03-08T15:43:30.618Z,97053.53
2024-03-08T15:45:05.264Z,97049.72
2024-03-08T15:46:40.838Z,97055.84
2024-03-08T15:48:13.973Z,97061.44
2024-03-08T15:49:48.129Z,97057.75
2024-03-08T15:51:24.084Z,97054.94
2024-03-08T15:52:57.123Z,97057.34
2024-03-08T15:54:31.419Z,97052.25
2024-03-08T15:56:07.049Z,97058.94
2024-03-08T15:57:41.778Z,97048.16
2024-03-08T15:59:15.424Z,97060.47
2024-03-08T16:00:49.926Z,97055.66
2024-03-08T16:02:24.739Z,97063.19
2024-03-08T16:03:59.491Z,97058.78
2024-03-08T16:05:32.496Z,97056.38
2024-03-08T16:07:07.952Z,97051.88
2024-03-08T16:08:41.120Z,97053.88
2024-03-08T16:10:15.720Z,97041.28
2024-03-08T16:11:49.744Z,97055.19
2024-03-08T16:13:24.836Z,97034.69
2024-03-08T16:14:58.255Z,97059.09
2024-03-08T16:16:33.684Z,97047.59
2024-03-08T16:18:08.036Z,97036.88
2024-03-08T16:19:42.735Z,97050.59
2024-03-08T16:21:16.556Z,97038.97
2024-03-08T16:22:54.036Z,97038.69
2024-03-08T16:24:28.240Z,97029.69
2024-03-08T16:26:01.404Z,97026.78
2024-03-08T16:27:35.526Z,97030.41
2024-03-08T16:29:09.077Z,97026.19
2024-03-08T16:30:48.981Z,97017.38
2024-03-08T16:32:22.089Z,97016.09
2024-03-08T16:33:56.106Z,97016.38
2024-03-08T16:35:29.542Z,97024.25
2024-03-08T16:37:04.582Z,97013.34
2024-03-08T16:38:40.067Z,97022.25
2024-03-08T16:40:16.643Z,97026.31
2024-03-08T16:41:52.178Z,97022.13
2024-03-08T16:43:25.254Z,97013.91
2024-03-08T16:44:59.829Z,97013.19
2024-03-08T16:46:35.929Z,97009.78
2024-03-08T16:48:12.373Z,97004.59
2024-03-08T16:49:46.626Z,97009.25
2024-03-08T16:51:20.782Z,97006.34
2024-03-08T16:52:56.815Z,96992.31
2024-03-08T16:54:43.478Z,97019.09
2024-03-08T16:56:25.830Z,97011.81
2024-03-08T16:58:00.008Z,97004.78
2024-03-08T16:59:33.840Z,97007.03
2024-03-08T17:01:08.366Z,96997.44
2024-03-08T17:02:41.623Z,96999.63
2024-03-08T17:04:19.105Z,97002.03
2024-03-08T17:05:55.623Z,97001.50
2024-03-08T17:07:33.413Z,96996.50
2024-03-08T17:09:12.996Z,96990.19
2024-03-08T17:10:47.716Z,96989.28
2024-03-08T17:12:21.789Z,96991.13
2024-03-08T17:13:55.352Z,96990.97
2024-03-08T17:15:30.237Z,96992.94
2024-03-08T17:17:06.150Z,96989.59
2024-03-08T17:18:38.990Z,96990.38
2024-03-08T17:20:16.671Z,96988.56
2024-03-08T17:21:50.556Z,96986.81
2024-03-08T17:23:24.641Z,96980.72
2024-03-08T17:24:57.721Z,96991.59
2024-03-08T17:26:33.700Z,96990.56
2024-03-08T17:28:09.922Z,96990.78
2024-03-08T17:29:45.637Z,96993.91
2024-03-08T17:31:22.519Z,96991.41
2024-03-08T17:33:00.847Z,96983.88
2024-03-08T17:34:36.718Z,96994.44
2024-03-08T17:36:12.372Z,96993.59
2024-03-08T17:37:48.218Z,96983.53
2024-03-08T17:39:23.252Z,96987.66
2024-03-08T17:40:56.402Z,96994.88
2024-03-08T17:42:32.888Z,96989.50
2024-03-08T17:44:05.954Z,96993.41
2024-03-08T17:45:42.067Z,96992.09
2024-03-08T17:47:16.656Z,96998.28
2024-03-08T17:48:50.652Z,96993.66
2024-03-08T17:50:25.317Z,96990.28
2024-03-08T17:52:03.925Z,96993.47
2024-03-08T17:53:37.038Z,96983.28
2024-03-08T17:55:14.922Z,96993.00
2024-03-08T17:56:47.902Z,96986.69
2024-03-08T17:58:23.993Z,96984.63
2024-03-08T17:59:57.048Z,96974.63
2024-03-08T18:01:33.651Z,96982.44
2024-03-08T18:03:09.946Z,96973.00
2024-03-08T18:04:46.742Z,96982.88
2024-03-08T18:06:19.923Z,96988.38
2024-03-08T18:07:54.564Z,96984.38
2024-03-08T18:09:31.454Z,96971.94
2024-03-08T18:11:05.938Z,96987.13
2024-03-08T18:12:39.139Z,96986.34
2024-03-08T18:14:15.998Z,96987.13
2024-03-08T18:15:49.387Z,96992.00
2024-03-08T18:17:24.295Z,96972.94
2024-03-08T18:18:57.338Z,96969.44
2024-03-08T18:20:33.794Z,96972.09
2024-03-08T18:22:09.199Z,96963.78
2024-03-08T18:23:45.021Z,96973.75
2024-03-08T18:25:21.152Z,96969.75
2024-03-08T18:26:55.369Z,96969.56
2024-03-08T18:28:29.502Z,96979.19
2024-03-08T18:30:06.858Z,96969.84
2024-03-08T18:31:39.990Z,96972.34
2024-03-08T18:33:15.854Z,96970.16
2024-03-08T18:34:51.120Z,96965.91
2024-03-08T18:36:25.690Z,96978.28
2024-03-08T18:37:59.105Z,96978.47
2024-03-08T18:39:33.397Z,96973.72